Alpine, Colorado
Current Conditions -  °F | °C
As of 6:25 AM on Friday 21 Nov 2014 (Local Time) from KRCV Reporting Station
Clear Clear  
Wind Chill: 12°   Ceiling: Unl
Heat Index: 22°   Visibility: 10mi
Dew Point: 12°   Wind: 8mph
Humidity: 67%   Direction: 250°WSW
Pressure: 30.09"   Gusts: NA
Location:  37.6617°N, 106.617°W
Report Text: KRCV 211325Z AUTO 25007KT 10SM CLR M06/M11 A3009 RMK AO2 T10581111
Loading
Personal Weather Stations






























Interactive Weather Map New forecast layout! Learn more

10-Day Weather Forecast

Advertisements
Track Severe Weather on mobile